sensor_id;sensor_type;location;lat;lon;timestamp;P1;durP1;ratioP1;P2;durP2;ratioP2
28796;SDS011;24974;54.444;18.560;2023-12-22T00:01:12;11.77;;;1.85;;
28796;SDS011;24974;54.444;18.560;2023-12-22T00:03:45;3.97;;;1.70;;
28796;SDS011;24974;54.444;18.560;2023-12-22T00:06:16;7.75;;;1.60;;
28796;SDS011;24974;54.444;18.560;2023-12-22T00:08:47;4.07;;;1.60;;
28796;SDS011;24974;54.444;18.560;2023-12-22T00:11:18;6.93;;;1.88;;
28796;SDS011;24974;54.444;18.560;2023-12-22T00:13:49;3.80;;;1.80;;
28796;SDS011;24974;54.444;18.560;2023-12-22T00:16:20;3.30;;;1.48;;
28796;SDS011;24974;54.444;18.560;2023-12-22T00:18:50;5.57;;;1.58;;
28796;SDS011;24974;54.444;18.560;2023-12-22T00:21:22;5.55;;;2.08;;
28796;SDS011;24974;54.444;18.560;2023-12-22T00:23:53;5.57;;;1.80;;
28796;SDS011;24974;54.444;18.560;2023-12-22T00:26:24;10.32;;;1.85;;
28796;SDS011;24974;54.444;18.560;2023-12-22T00:28:55;8.82;;;2.00;;
28796;SDS011;24974;54.444;18.560;2023-12-22T00:31:26;8.82;;;2.10;;
28796;SDS011;24974;54.444;18.560;2023-12-22T00:33:57;4.18;;;1.30;;
28796;SDS011;24974;54.444;18.560;2023-12-22T00:36:28;5.65;;;1.75;;
28796;SDS011;24974;54.444;18.560;2023-12-22T00:38:58;1.85;;;0.95;;
28796;SDS011;24974;54.444;18.560;2023-12-22T00:41:29;7.38;;;1.63;;
28796;SDS011;24974;54.444;18.560;2023-12-22T00:44:00;3.97;;;1.60;;
28796;SDS011;24974;54.444;18.560;2023-12-22T00:46:31;3.58;;;1.52;;
28796;SDS011;24974;54.444;18.560;2023-12-22T00:49:02;9.13;;;1.60;;
28796;SDS011;24974;54.444;18.560;2023-12-22T00:51:32;4.88;;;1.60;;
28796;SDS011;24974;54.444;18.560;2023-12-22T00:54:03;7.03;;;2.25;;
28796;SDS011;24974;54.444;18.560;2023-12-22T00:56:34;7.38;;;1.48;;
28796;SDS011;24974;54.444;18.560;2023-12-22T00:59:05;10.55;;;1.92;;
28796;SDS011;24974;54.444;18.560;2023-12-22T01:01:36;8.68;;;2.33;;
28796;SDS011;24974;54.444;18.560;2023-12-22T01:04:07;6.53;;;1.52;;
28796;SDS011;24974;54.444;18.560;2023-12-22T01:06:38;5.13;;;1.60;;
28796;SDS011;24974;54.444;18.560;2023-12-22T01:09:09;1.48;;;1.15;;
28796;SDS011;24974;54.444;18.560;2023-12-22T01:11:40;1.85;;;1.13;;
28796;SDS011;24974;54.444;18.560;2023-12-22T01:14:11;1.88;;;0.90;;
28796;SDS011;24974;54.444;18.560;2023-12-22T01:16:43;4.80;;;1.83;;
28796;SDS011;24974;54.444;18.560;2023-12-22T01:19:14;4.20;;;0.80;;
28796;SDS011;24974;54.444;18.560;2023-12-22T01:21:45;1.15;;;0.70;;
28796;SDS011;24974;54.444;18.560;2023-12-22T01:24:16;1.77;;;0.85;;
28796;SDS011;24974;54.444;18.560;2023-12-22T01:26:47;1.23;;;0.77;;
28796;SDS011;24974;54.444;18.560;2023-12-22T01:29:17;1.38;;;0.90;;
28796;SDS011;24974;54.444;18.560;2023-12-22T01:31:48;1.20;;;0.70;;
28796;SDS011;24974;54.444;18.560;2023-12-22T01:34:19;0.80;;;0.80;;
28796;SDS011;24974;54.444;18.560;2023-12-22T01:36:50;2.28;;;1.35;;
28796;SDS011;24974;54.444;18.560;2023-12-22T01:39:21;1.63;;;1.10;;
28796;SDS011;24974;54.444;18.560;2023-12-22T01:41:51;1.92;;;1.15;;
28796;SDS011;24974;54.444;18.560;2023-12-22T01:44:22;1.00;;;0.90;;
28796;SDS011;24974;54.444;18.560;2023-12-22T01:46:53;1.00;;;0.88;;
28796;SDS011;24974;54.444;18.560;2023-12-22T01:49:24;1.25;;;1.00;;
28796;SDS011;24974;54.444;18.560;2023-12-22T01:51:56;3.08;;;0.80;;
28796;SDS011;24974;54.444;18.560;2023-12-22T01:54:27;2.35;;;1.02;;
28796;SDS011;24974;54.444;18.560;2023-12-22T01:56:58;1.42;;;1.00;;
28796;SDS011;24974;54.444;18.560;2023-12-22T01:59:29;1.77;;;1.05;;
28796;SDS011;24974;54.444;18.560;2023-12-22T02:02:04;1.45;;;1.08;;
28796;SDS011;24974;54.444;18.560;2023-12-22T02:04:35;2.75;;;1.17;;
28796;SDS011;24974;54.444;18.560;2023-12-22T02:07:06;2.17;;;1.30;;
28796;SDS011;24974;54.444;18.560;2023-12-22T02:09:39;2.08;;;1.17;;
28796;SDS011;24974;54.444;18.560;2023-12-22T02:12:09;1.70;;;1.30;;
28796;SDS011;24974;54.444;18.560;2023-12-22T02:14:41;2.92;;;1.30;;
28796;SDS011;24974;54.444;18.560;2023-12-22T02:17:17;3.78;;;1.77;;
28796;SDS011;24974;54.444;18.560;2023-12-22T02:19:54;8.73;;;2.17;;
28796;SDS011;24974;54.444;18.560;2023-12-22T02:22:30;2.85;;;1.60;;
28796;SDS011;24974;54.444;18.560;2023-12-22T02:25:01;2.60;;;2.17;;
28796;SDS011;24974;54.444;18.560;2023-12-22T02:33:13;9.40;;;2.35;;
28796;SDS011;24974;54.444;18.560;2023-12-22T02:35:46;4.40;;;1.80;;
28796;SDS011;24974;54.444;18.560;2023-12-22T02:38:21;5.97;;;2.70;;
28796;SDS011;24974;54.444;18.560;2023-12-22T02:40:52;4.03;;;1.98;;
28796;SDS011;24974;54.444;18.560;2023-12-22T02:43:23;5.90;;;2.08;;
28796;SDS011;24974;54.444;18.560;2023-12-22T02:45:54;3.63;;;1.90;;
28796;SDS011;24974;54.444;18.560;2023-12-22T02:48:25;5.53;;;2.13;;
28796;SDS011;24974;54.444;18.560;2023-12-22T02:50:56;4.75;;;1.65;;
28796;SDS011;24974;54.444;18.560;2023-12-22T02:53:27;4.18;;;1.80;;
28796;SDS011;24974;54.444;18.560;2023-12-22T02:55:57;4.70;;;1.80;;
28796;SDS011;24974;54.444;18.560;2023-12-22T02:58:28;3.35;;;2.05;;
28796;SDS011;24974;54.444;18.560;2023-12-22T03:00:59;8.35;;;2.75;;
28796;SDS011;24974;54.444;18.560;2023-12-22T03:03:30;5.70;;;1.92;;
28796;SDS011;24974;54.444;18.560;2023-12-22T03:06:01;9.13;;;1.92;;
28796;SDS011;24974;54.444;18.560;2023-12-22T03:08:32;6.55;;;2.33;;
28796;SDS011;24974;54.444;18.560;2023-12-22T03:11:03;2.45;;;1.58;;
28796;SDS011;24974;54.444;18.560;2023-12-22T03:13:33;4.78;;;3.17;;
28796;SDS011;24974;54.444;18.560;2023-12-22T03:16:07;4.80;;;2.53;;
28796;SDS011;24974;54.444;18.560;2023-12-22T03:18:39;5.35;;;1.80;;
28796;SDS011;24974;54.444;18.560;2023-12-22T03:21:19;8.32;;;2.33;;
28796;SDS011;24974;54.444;18.560;2023-12-22T03:23:50;5.55;;;2.30;;
28796;SDS011;24974;54.444;18.560;2023-12-22T03:26:21;7.15;;;2.13;;
28796;SDS011;24974;54.444;18.560;2023-12-22T03:28:51;7.30;;;1.95;;
28796;SDS011;24974;54.444;18.560;2023-12-22T03:31:22;6.72;;;1.98;;
28796;SDS011;24974;54.444;18.560;2023-12-22T03:33:54;6.43;;;1.92;;
28796;SDS011;24974;54.444;18.560;2023-12-22T03:36:24;4.55;;;2.03;;
28796;SDS011;24974;54.444;18.560;2023-12-22T03:38:55;3.80;;;2.10;;
28796;SDS011;24974;54.444;18.560;2023-12-22T03:41:26;3.42;;;1.58;;
28796;SDS011;24974;54.444;18.560;2023-12-22T03:43:57;4.72;;;1.70;;
28796;SDS011;24974;54.444;18.560;2023-12-22T03:46:28;2.88;;;1.60;;
28796;SDS011;24974;54.444;18.560;2023-12-22T03:48:59;2.10;;;1.70;;
28796;SDS011;24974;54.444;18.560;2023-12-22T03:51:30;3.13;;;1.80;;
28796;SDS011;24974;54.444;18.560;2023-12-22T03:54:01;2.75;;;1.80;;
28796;SDS011;24974;54.444;18.560;2023-12-22T03:56:32;3.42;;;1.70;;
28796;SDS011;24974;54.444;18.560;2023-12-22T03:59:03;3.03;;;1.85;;
28796;SDS011;24974;54.444;18.560;2023-12-22T04:01:34;5.57;;;2.05;;
28796;SDS011;24974;54.444;18.560;2023-12-22T04:04:05;7.47;;;2.42;;
28796;SDS011;24974;54.444;18.560;2023-12-22T04:06:39;3.88;;;1.98;;
28796;SDS011;24974;54.444;18.560;2023-12-22T04:09:10;6.88;;;2.50;;
28796;SDS011;24974;54.444;18.560;2023-12-22T04:11:41;12.52;;;2.97;;
28796;SDS011;24974;54.444;18.560;2023-12-22T04:14:12;4.90;;;2.00;;
28796;SDS011;24974;54.444;18.560;2023-12-22T04:16:43;6.10;;;2.53;;
28796;SDS011;24974;54.444;18.560;2023-12-22T04:19:14;7.40;;;2.28;;
28796;SDS011;24974;54.444;18.560;2023-12-22T04:21:45;8.30;;;2.00;;
28796;SDS011;24974;54.444;18.560;2023-12-22T04:24:15;5.80;;;2.33;;
28796;SDS011;24974;54.444;18.560;2023-12-22T04:26:46;5.80;;;2.05;;
28796;SDS011;24974;54.444;18.560;2023-12-22T04:29:17;11.88;;;2.33;;
28796;SDS011;24974;54.444;18.560;2023-12-22T04:31:48;9.63;;;1.95;;
28796;SDS011;24974;54.444;18.560;2023-12-22T04:34:19;7.07;;;2.53;;
28796;SDS011;24974;54.444;18.560;2023-12-22T04:36:50;2.25;;;1.33;;
28796;SDS011;24974;54.444;18.560;2023-12-22T04:39:21;3.78;;;1.58;;
28796;SDS011;24974;54.444;18.560;2023-12-22T04:41:52;4.65;;;1.83;;
28796;SDS011;24974;54.444;18.560;2023-12-22T04:44:23;7.30;;;2.00;;
28796;SDS011;24974;54.444;18.560;2023-12-22T04:46:53;8.57;;;1.88;;
28796;SDS011;24974;54.444;18.560;2023-12-22T04:49:24;3.97;;;1.55;;
28796;SDS011;24974;54.444;18.560;2023-12-22T04:51:55;16.52;;;2.70;;
28796;SDS011;24974;54.444;18.560;2023-12-22T04:54:26;6.75;;;1.63;;
28796;SDS011;24974;54.444;18.560;2023-12-22T04:56:57;4.10;;;1.67;;
28796;SDS011;24974;54.444;18.560;2023-12-22T04:59:27;2.67;;;1.23;;
28796;SDS011;24974;54.444;18.560;2023-12-22T05:01:58;9.95;;;1.90;;
28796;SDS011;24974;54.444;18.560;2023-12-22T05:04:29;6.78;;;1.60;;
28796;SDS011;24974;54.444;18.560;2023-12-22T05:07:00;3.83;;;1.35;;
28796;SDS011;24974;54.444;18.560;2023-12-22T05:09:31;4.35;;;1.75;;
28796;SDS011;24974;54.444;18.560;2023-12-22T05:12:02;7.00;;;1.52;;
28796;SDS011;24974;54.444;18.560;2023-12-22T05:14:33;7.55;;;1.60;;
28796;SDS011;24974;54.444;18.560;2023-12-22T05:17:04;8.82;;;1.55;;
28796;SDS011;24974;54.444;18.560;2023-12-22T05:19:35;7.82;;;1.73;;
28796;SDS011;24974;54.444;18.560;2023-12-22T05:22:06;5.40;;;1.75;;
28796;SDS011;24974;54.444;18.560;2023-12-22T05:24:37;19.35;;;3.00;;
28796;SDS011;24974;54.444;18.560;2023-12-22T05:27:08;13.40;;;2.70;;
28796;SDS011;24974;54.444;18.560;2023-12-22T05:29:39;19.83;;;4.18;;
28796;SDS011;24974;54.444;18.560;2023-12-22T05:32:10;8.77;;;3.17;;
28796;SDS011;24974;54.444;18.560;2023-12-22T05:34:41;25.02;;;3.45;;
28796;SDS011;24974;54.444;18.560;2023-12-22T05:37:12;13.02;;;3.58;;
28796;SDS011;24974;54.444;18.560;2023-12-22T05:39:43;16.35;;;3.10;;
28796;SDS011;24974;54.444;18.560;2023-12-22T05:42:15;16.40;;;3.13;;
28796;SDS011;24974;54.444;18.560;2023-12-22T05:44:46;14.75;;;3.22;;
28796;SDS011;24974;54.444;18.560;2023-12-22T05:47:20;11.18;;;2.83;;
28796;SDS011;24974;54.444;18.560;2023-12-22T05:49:50;22.30;;;3.47;;
28796;SDS011;24974;54.444;18.560;2023-12-22T05:52:21;14.02;;;2.53;;
28796;SDS011;24974;54.444;18.560;2023-12-22T05:54:52;20.23;;;3.67;;
28796;SDS011;24974;54.444;18.560;2023-12-22T05:57:25;11.32;;;2.60;;
28796;SDS011;24974;54.444;18.560;2023-12-22T05:59:56;21.80;;;3.63;;
28796;SDS011;24974;54.444;18.560;2023-12-22T06:02:26;11.43;;;2.38;;
28796;SDS011;24974;54.444;18.560;2023-12-22T06:04:57;11.27;;;3.30;;
28796;SDS011;24974;54.444;18.560;2023-12-22T06:07:28;20.48;;;3.75;;
28796;SDS011;24974;54.444;18.560;2023-12-22T06:09:59;19.08;;;3.85;;
28796;SDS011;24974;54.444;18.560;2023-12-22T06:12:30;26.75;;;4.45;;
28796;SDS011;24974;54.444;18.560;2023-12-22T06:15:01;25.30;;;4.18;;
28796;SDS011;24974;54.444;18.560;2023-12-22T06:17:32;18.60;;;2.92;;
28796;SDS011;24974;54.444;18.560;2023-12-22T06:20:03;11.52;;;2.55;;
28796;SDS011;24974;54.444;18.560;2023-12-22T06:22:35;12.48;;;3.30;;
28796;SDS011;24974;54.444;18.560;2023-12-22T06:25:05;11.57;;;3.13;;
28796;SDS011;24974;54.444;18.560;2023-12-22T06:27:37;16.15;;;3.10;;
28796;SDS011;24974;54.444;18.560;2023-12-22T06:30:08;17.35;;;2.88;;
28796;SDS011;24974;54.444;18.560;2023-12-22T06:32:39;17.50;;;4.22;;
28796;SDS011;24974;54.444;18.560;2023-12-22T06:35:11;24.77;;;4.55;;
28796;SDS011;24974;54.444;18.560;2023-12-22T06:37:42;26.38;;;3.70;;
28796;SDS011;24974;54.444;18.560;2023-12-22T06:40:13;19.77;;;2.95;;
28796;SDS011;24974;54.444;18.560;2023-12-22T06:42:44;19.30;;;4.30;;
28796;SDS011;24974;54.444;18.560;2023-12-22T06:45:15;15.95;;;3.33;;
28796;SDS011;24974;54.444;18.560;2023-12-22T06:47:46;22.38;;;3.45;;
28796;SDS011;24974;54.444;18.560;2023-12-22T06:50:16;11.20;;;2.60;;
28796;SDS011;24974;54.444;18.560;2023-12-22T06:52:47;13.35;;;3.17;;
28796;SDS011;24974;54.444;18.560;2023-12-22T06:55:19;11.50;;;2.80;;
28796;SDS011;24974;54.444;18.560;2023-12-22T06:57:50;13.90;;;2.63;;
28796;SDS011;24974;54.444;18.560;2023-12-22T07:00:21;8.40;;;2.35;;
28796;SDS011;24974;54.444;18.560;2023-12-22T07:02:52;23.33;;;4.15;;
28796;SDS011;24974;54.444;18.560;2023-12-22T07:07:54;15.43;;;2.95;;
28796;SDS011;24974;54.444;18.560;2023-12-22T07:10:24;10.82;;;2.20;;
28796;SDS011;24974;54.444;18.560;2023-12-22T07:12:55;15.13;;;2.97;;
28796;SDS011;24974;54.444;18.560;2023-12-22T07:15:26;15.40;;;3.03;;
28796;SDS011;24974;54.444;18.560;2023-12-22T07:17:58;9.93;;;2.70;;
28796;SDS011;24974;54.444;18.560;2023-12-22T07:20:29;7.32;;;2.85;;
28796;SDS011;24974;54.444;18.560;2023-12-22T07:23:00;9.95;;;3.63;;
28796;SDS011;24974;54.444;18.560;2023-12-22T07:25:35;16.13;;;3.50;;
28796;SDS011;24974;54.444;18.560;2023-12-22T07:28:08;9.02;;;2.88;;
28796;SDS011;24974;54.444;18.560;2023-12-22T07:30:39;18.25;;;3.67;;
28796;SDS011;24974;54.444;18.560;2023-12-22T07:33:10;17.75;;;3.35;;
28796;SDS011;24974;54.444;18.560;2023-12-22T07:35:41;13.05;;;2.90;;
28796;SDS011;24974;54.444;18.560;2023-12-22T07:38:11;12.20;;;3.00;;
28796;SDS011;24974;54.444;18.560;2023-12-22T07:40:42;12.30;;;3.28;;
28796;SDS011;24974;54.444;18.560;2023-12-22T07:43:13;17.50;;;3.40;;
28796;SDS011;24974;54.444;18.560;2023-12-22T07:45:44;11.20;;;2.95;;
28796;SDS011;24974;54.444;18.560;2023-12-22T07:48:15;11.13;;;2.33;;
28796;SDS011;24974;54.444;18.560;2023-12-22T07:50:46;13.02;;;3.25;;
28796;SDS011;24974;54.444;18.560;2023-12-22T07:53:17;9.18;;;2.83;;
28796;SDS011;24974;54.444;18.560;2023-12-22T07:55:48;11.02;;;3.10;;
28796;SDS011;24974;54.444;18.560;2023-12-22T07:58:19;18.60;;;3.40;;
28796;SDS011;24974;54.444;18.560;2023-12-22T08:00:49;10.10;;;2.78;;
28796;SDS011;24974;54.444;18.560;2023-12-22T08:03:20;10.75;;;2.80;;
28796;SDS011;24974;54.444;18.560;2023-12-22T08:05:51;7.35;;;3.03;;
28796;SDS011;24974;54.444;18.560;2023-12-22T08:08:22;15.27;;;2.83;;
28796;SDS011;24974;54.444;18.560;2023-12-22T08:10:53;15.10;;;3.67;;
28796;SDS011;24974;54.444;18.560;2023-12-22T08:13:23;9.25;;;2.70;;
28796;SDS011;24974;54.444;18.560;2023-12-22T08:15:54;11.02;;;3.03;;
28796;SDS011;24974;54.444;18.560;2023-12-22T08:18:25;10.82;;;2.65;;
28796;SDS011;24974;54.444;18.560;2023-12-22T08:20:56;9.60;;;3.03;;
28796;SDS011;24974;54.444;18.560;2023-12-22T08:23:27;11.23;;;2.72;;
28796;SDS011;24974;54.444;18.560;2023-12-22T08:25:58;11.30;;;2.80;;
28796;SDS011;24974;54.444;18.560;2023-12-22T08:28:28;13.95;;;3.10;;
28796;SDS011;24974;54.444;18.560;2023-12-22T08:30:59;15.20;;;3.85;;
28796;SDS011;24974;54.444;18.560;2023-12-22T08:33:30;8.73;;;2.42;;
28796;SDS011;24974;54.444;18.560;2023-12-22T08:36:01;13.95;;;2.75;;
28796;SDS011;24974;54.444;18.560;2023-12-22T08:38:32;11.80;;;2.90;;
28796;SDS011;24974;54.444;18.560;2023-12-22T08:41:03;9.90;;;3.00;;
28796;SDS011;24974;54.444;18.560;2023-12-22T08:43:34;8.57;;;2.90;;
28796;SDS011;24974;54.444;18.560;2023-12-22T08:46:05;5.82;;;2.28;;
28796;SDS011;24974;54.444;18.560;2023-12-22T08:48:37;5.50;;;2.00;;
28796;SDS011;24974;54.444;18.560;2023-12-22T08:51:08;7.38;;;2.75;;
28796;SDS011;24974;54.444;18.560;2023-12-22T08:53:38;5.15;;;2.45;;
28796;SDS011;24974;54.444;18.560;2023-12-22T08:56:10;9.27;;;3.70;;
28796;SDS011;24974;54.444;18.560;2023-12-22T08:58:41;8.18;;;2.20;;
28796;SDS011;24974;54.444;18.560;2023-12-22T09:01:15;6.68;;;2.13;;
28796;SDS011;24974;54.444;18.560;2023-12-22T09:03:46;0.60;;;0.60;;
28796;SDS011;24974;54.444;18.560;2023-12-22T09:06:18;0.50;;;0.50;;
28796;SDS011;24974;54.444;18.560;2023-12-22T09:08:49;0.50;;;0.50;;
28796;SDS011;24974;54.444;18.560;2023-12-22T09:11:20;0.50;;;0.50;;
28796;SDS011;24974;54.444;18.560;2023-12-22T09:13:52;0.50;;;0.50;;
28796;SDS011;24974;54.444;18.560;2023-12-22T09:16:22;0.60;;;0.60;;
28796;SDS011;24974;54.444;18.560;2023-12-22T09:18:57;0.50;;;0.50;;
28796;SDS011;24974;54.444;18.560;2023-12-22T09:21:28;0.50;;;0.50;;
28796;SDS011;24974;54.444;18.560;2023-12-22T09:23:59;0.60;;;0.60;;
28796;SDS011;24974;54.444;18.560;2023-12-22T09:26:29;0.63;;;0.63;;
28796;SDS011;24974;54.444;18.560;2023-12-22T09:29:00;1.30;;;1.30;;
28796;SDS011;24974;54.444;18.560;2023-12-22T09:31:31;0.50;;;0.50;;
28796;SDS011;24974;54.444;18.560;2023-12-22T09:34:03;0.50;;;0.50;;
28796;SDS011;24974;54.444;18.560;2023-12-22T09:36:33;0.50;;;0.50;;
28796;SDS011;24974;54.444;18.560;2023-12-22T09:39:04;0.50;;;0.50;;
28796;SDS011;24974;54.444;18.560;2023-12-22T09:41:35;0.50;;;0.50;;
28796;SDS011;24974;54.444;18.560;2023-12-22T09:44:06;0.50;;;0.50;;
28796;SDS011;24974;54.444;18.560;2023-12-22T09:46:40;0.50;;;0.50;;
28796;SDS011;24974;54.444;18.560;2023-12-22T09:49:13;0.50;;;0.50;;
28796;SDS011;24974;54.444;18.560;2023-12-22T09:51:44;0.50;;;0.50;;
28796;SDS011;24974;54.444;18.560;2023-12-22T09:54:17;0.50;;;0.50;;
28796;SDS011;24974;54.444;18.560;2023-12-22T09:56:49;0.40;;;0.40;;
28796;SDS011;24974;54.444;18.560;2023-12-22T09:59:21;0.40;;;0.40;;
28796;SDS011;24974;54.444;18.560;2023-12-22T10:01:54;0.50;;;0.50;;
28796;SDS011;24974;54.444;18.560;2023-12-22T10:04:26;0.50;;;0.50;;
28796;SDS011;24974;54.444;18.560;2023-12-22T10:06:58;0.50;;;0.50;;
28796;SDS011;24974;54.444;18.560;2023-12-22T10:09:31;0.50;;;0.50;;
28796;SDS011;24974;54.444;18.560;2023-12-22T10:12:02;0.50;;;0.50;;
28796;SDS011;24974;54.444;18.560;2023-12-22T10:14:35;0.50;;;0.50;;
28796;SDS011;24974;54.444;18.560;2023-12-22T10:17:08;0.60;;;0.60;;
28796;SDS011;24974;54.444;18.560;2023-12-22T10:19:39;0.50;;;0.50;;
28796;SDS011;24974;54.444;18.560;2023-12-22T10:22:10;0.50;;;0.50;;
28796;SDS011;24974;54.444;18.560;2023-12-22T10:24:41;0.60;;;0.60;;
28796;SDS011;24974;54.444;18.560;2023-12-22T10:27:14;0.50;;;0.50;;
28796;SDS011;24974;54.444;18.560;2023-12-22T10:29:47;0.50;;;0.50;;
28796;SDS011;24974;54.444;18.560;2023-12-22T10:32:20;0.60;;;0.60;;
28796;SDS011;24974;54.444;18.560;2023-12-22T10:34:51;0.50;;;0.50;;
28796;SDS011;24974;54.444;18.560;2023-12-22T10:37:23;0.50;;;0.50;;
28796;SDS011;24974;54.444;18.560;2023-12-22T10:39:54;0.50;;;0.50;;
28796;SDS011;24974;54.444;18.560;2023-12-22T10:42:25;0.52;;;0.52;;
28796;SDS011;24974;54.444;18.560;2023-12-22T10:44:56;0.50;;;0.50;;
28796;SDS011;24974;54.444;18.560;2023-12-22T10:47:30;0.50;;;0.50;;
28796;SDS011;24974;54.444;18.560;2023-12-22T10:50:04;0.52;;;0.52;;
28796;SDS011;24974;54.444;18.560;2023-12-22T10:52:35;1.48;;;1.42;;
28796;SDS011;24974;54.444;18.560;2023-12-22T10:55:06;0.50;;;0.50;;
28796;SDS011;24974;54.444;18.560;2023-12-22T10:57:37;0.60;;;0.60;;
28796;SDS011;24974;54.444;18.560;2023-12-22T11:00:09;0.50;;;0.50;;
28796;SDS011;24974;54.444;18.560;2023-12-22T11:02:41;0.50;;;0.50;;
28796;SDS011;24974;54.444;18.560;2023-12-22T11:05:13;0.40;;;0.40;;
28796;SDS011;24974;54.444;18.560;2023-12-22T11:07:48;0.50;;;0.50;;
28796;SDS011;24974;54.444;18.560;2023-12-22T11:10:20;0.50;;;0.50;;
28796;SDS011;24974;54.444;18.560;2023-12-22T11:12:52;0.50;;;0.50;;
28796;SDS011;24974;54.444;18.560;2023-12-22T11:15:24;0.50;;;0.50;;
28796;SDS011;24974;54.444;18.560;2023-12-22T11:17:57;0.50;;;0.50;;
28796;SDS011;24974;54.444;18.560;2023-12-22T11:20:29;0.50;;;0.50;;
28796;SDS011;24974;54.444;18.560;2023-12-22T11:23:02;0.50;;;0.50;;
28796;SDS011;24974;54.444;18.560;2023-12-22T11:25:35;0.50;;;0.50;;
28796;SDS011;24974;54.444;18.560;2023-12-22T11:28:08;0.60;;;0.60;;
28796;SDS011;24974;54.444;18.560;2023-12-22T11:30:42;0.50;;;0.50;;
28796;SDS011;24974;54.444;18.560;2023-12-22T11:33:14;0.50;;;0.50;;
28796;SDS011;24974;54.444;18.560;2023-12-22T11:35:46;0.45;;;0.45;;
28796;SDS011;24974;54.444;18.560;2023-12-22T11:38:18;0.50;;;0.50;;
28796;SDS011;24974;54.444;18.560;2023-12-22T11:40:49;0.50;;;0.50;;
28796;SDS011;24974;54.444;18.560;2023-12-22T11:43:22;0.52;;;0.52;;
28796;SDS011;24974;54.444;18.560;2023-12-22T11:45:54;0.50;;;0.50;;
28796;SDS011;24974;54.444;18.560;2023-12-22T11:48:25;0.50;;;0.50;;
28796;SDS011;24974;54.444;18.560;2023-12-22T11:50:56;0.52;;;0.52;;
28796;SDS011;24974;54.444;18.560;2023-12-22T11:53:30;0.50;;;0.50;;
28796;SDS011;24974;54.444;18.560;2023-12-22T11:56:04;0.60;;;0.60;;
28796;SDS011;24974;54.444;18.560;2023-12-22T11:58:39;0.50;;;0.50;;
28796;SDS011;24974;54.444;18.560;2023-12-22T12:01:22;0.50;;;0.50;;
28796;SDS011;24974;54.444;18.560;2023-12-22T12:03:55;0.50;;;0.50;;
28796;SDS011;24974;54.444;18.560;2023-12-22T12:09:00;0.45;;;0.45;;
28796;SDS011;24974;54.444;18.560;2023-12-22T12:14:37;0.50;;;0.50;;
28796;SDS011;24974;54.444;18.560;2023-12-22T12:17:12;0.50;;;0.50;;
28796;SDS011;24974;54.444;18.560;2023-12-22T12:19:48;0.50;;;0.50;;
28796;SDS011;24974;54.444;18.560;2023-12-22T12:22:19;0.52;;;0.52;;
28796;SDS011;24974;54.444;18.560;2023-12-22T12:24:55;0.60;;;0.60;;
28796;SDS011;24974;54.444;18.560;2023-12-22T12:27:26;0.57;;;0.57;;
28796;SDS011;24974;54.444;18.560;2023-12-22T12:29:56;0.47;;;0.47;;
28796;SDS011;24974;54.444;18.560;2023-12-22T12:32:27;0.98;;;0.98;;
28796;SDS011;24974;54.444;18.560;2023-12-22T12:34:58;0.50;;;0.50;;
28796;SDS011;24974;54.444;18.560;2023-12-22T12:37:30;0.50;;;0.50;;
28796;SDS011;24974;54.444;18.560;2023-12-22T12:40:02;0.60;;;0.60;;
28796;SDS011;24974;54.444;18.560;2023-12-22T12:42:35;0.50;;;0.50;;
28796;SDS011;24974;54.444;18.560;2023-12-22T12:45:09;0.50;;;0.50;;
28796;SDS011;24974;54.444;18.560;2023-12-22T12:47:40;0.57;;;0.57;;
28796;SDS011;24974;54.444;18.560;2023-12-22T12:50:12;0.50;;;0.50;;
28796;SDS011;24974;54.444;18.560;2023-12-22T12:52:43;0.50;;;0.50;;
28796;SDS011;24974;54.444;18.560;2023-12-22T12:55:13;0.50;;;0.50;;
28796;SDS011;24974;54.444;18.560;2023-12-22T12:57:44;0.60;;;0.60;;
28796;SDS011;24974;54.444;18.560;2023-12-22T13:00:15;0.50;;;0.50;;
28796;SDS011;24974;54.444;18.560;2023-12-22T13:02:47;0.50;;;0.50;;
28796;SDS011;24974;54.444;18.560;2023-12-22T13:05:22;0.50;;;0.50;;
28796;SDS011;24974;54.444;18.560;2023-12-22T13:08:05;0.50;;;0.50;;
28796;SDS011;24974;54.444;18.560;2023-12-22T13:10:42;0.60;;;0.60;;
28796;SDS011;24974;54.444;18.560;2023-12-22T13:13:13;0.50;;;0.50;;
28796;SDS011;24974;54.444;18.560;2023-12-22T13:15:44;0.43;;;0.43;;
28796;SDS011;24974;54.444;18.560;2023-12-22T13:18:15;0.40;;;0.40;;
28796;SDS011;24974;54.444;18.560;2023-12-22T13:20:46;0.50;;;0.50;;
28796;SDS011;24974;54.444;18.560;2023-12-22T13:23:17;0.60;;;0.60;;
28796;SDS011;24974;54.444;18.560;2023-12-22T13:25:49;0.60;;;0.60;;
28796;SDS011;24974;54.444;18.560;2023-12-22T13:28:27;0.40;;;0.40;;
28796;SDS011;24974;54.444;18.560;2023-12-22T13:30:58;0.50;;;0.50;;
28796;SDS011;24974;54.444;18.560;2023-12-22T13:33:33;0.50;;;0.50;;
28796;SDS011;24974;54.444;18.560;2023-12-22T13:36:04;0.60;;;0.60;;
28796;SDS011;24974;54.444;18.560;2023-12-22T13:38:36;0.60;;;0.60;;
28796;SDS011;24974;54.444;18.560;2023-12-22T13:41:07;0.60;;;0.60;;
28796;SDS011;24974;54.444;18.560;2023-12-22T13:43:39;0.40;;;0.40;;
28796;SDS011;24974;54.444;18.560;2023-12-22T13:46:11;0.50;;;0.50;;
28796;SDS011;24974;54.444;18.560;2023-12-22T13:48:45;0.50;;;0.50;;
28796;SDS011;24974;54.444;18.560;2023-12-22T13:51:16;0.50;;;0.50;;
28796;SDS011;24974;54.444;18.560;2023-12-22T13:53:48;0.60;;;0.60;;
28796;SDS011;24974;54.444;18.560;2023-12-22T13:56:20;0.60;;;0.60;;
28796;SDS011;24974;54.444;18.560;2023-12-22T13:58:51;0.50;;;0.50;;
28796;SDS011;24974;54.444;18.560;2023-12-22T14:01:22;0.50;;;0.50;;
28796;SDS011;24974;54.444;18.560;2023-12-22T14:03:53;0.50;;;0.50;;
28796;SDS011;24974;54.444;18.560;2023-12-22T14:06:24;0.52;;;0.52;;
28796;SDS011;24974;54.444;18.560;2023-12-22T14:08:57;0.90;;;0.90;;
28796;SDS011;24974;54.444;18.560;2023-12-22T14:11:27;0.60;;;0.60;;
28796;SDS011;24974;54.444;18.560;2023-12-22T14:13:58;0.60;;;0.60;;
28796;SDS011;24974;54.444;18.560;2023-12-22T14:16:29;0.60;;;0.60;;
28796;SDS011;24974;54.444;18.560;2023-12-22T14:19:00;0.50;;;0.50;;
28796;SDS011;24974;54.444;18.560;2023-12-22T14:21:31;0.50;;;0.50;;
28796;SDS011;24974;54.444;18.560;2023-12-22T14:24:01;0.50;;;0.50;;
28796;SDS011;24974;54.444;18.560;2023-12-22T14:26:51;0.52;;;0.52;;
28796;SDS011;24974;54.444;18.560;2023-12-22T14:29:25;0.52;;;0.52;;
28796;SDS011;24974;54.444;18.560;2023-12-22T14:31:56;0.57;;;0.57;;
28796;SDS011;24974;54.444;18.560;2023-12-22T14:34:27;0.52;;;0.52;;
28796;SDS011;24974;54.444;18.560;2023-12-22T14:36:58;0.60;;;0.60;;
28796;SDS011;24974;54.444;18.560;2023-12-22T14:39:29;0.60;;;0.60;;
28796;SDS011;24974;54.444;18.560;2023-12-22T14:42:01;0.50;;;0.50;;
28796;SDS011;24974;54.444;18.560;2023-12-22T14:44:33;0.50;;;0.50;;
28796;SDS011;24974;54.444;18.560;2023-12-22T14:47:07;0.60;;;0.60;;
28796;SDS011;24974;54.444;18.560;2023-12-22T14:49:38;0.60;;;0.60;;
28796;SDS011;24974;54.444;18.560;2023-12-22T14:52:08;0.50;;;0.50;;
28796;SDS011;24974;54.444;18.560;2023-12-22T14:54:39;0.57;;;0.57;;
28796;SDS011;24974;54.444;18.560;2023-12-22T14:57:10;0.60;;;0.60;;
28796;SDS011;24974;54.444;18.560;2023-12-22T14:59:43;0.50;;;0.50;;
28796;SDS011;24974;54.444;18.560;2023-12-22T15:02:15;0.60;;;0.60;;
28796;SDS011;24974;54.444;18.560;2023-12-22T15:04:45;0.50;;;0.50;;
28796;SDS011;24974;54.444;18.560;2023-12-22T15:07:17;0.60;;;0.60;;
28796;SDS011;24974;54.444;18.560;2023-12-22T15:09:48;0.60;;;0.60;;